createdAt,value
2023-04-16T00:00:52.954Z,28.53
2023-04-16T00:03:19.312Z,29.90
2023-04-16T00:05:45.564Z,30.80
2023-04-16T00:08:11.818Z,31.37
2023-04-16T00:10:38.090Z,29.93
2023-04-16T00:13:04.154Z,29.73
2023-04-16T00:15:30.217Z,30.83
2023-04-16T00:17:56.323Z,29.53
2023-04-16T00:20:22.419Z,30.00
2023-04-16T00:22:48.541Z,31.23
2023-04-16T00:25:14.842Z,30.93
2023-04-16T00:27:40.915Z,30.97
2023-04-16T00:30:07.485Z,30.10
2023-04-16T00:32:33.754Z,28.80
2023-04-16T00:35:00.042Z,29.30
2023-04-16T00:37:26.113Z,28.33
2023-04-16T00:39:52.197Z,29.87
2023-04-16T00:42:18.321Z,27.00
2023-04-16T00:44:44.384Z,29.87
2023-04-16T00:47:10.844Z,30.40
2023-04-16T00:49:37.073Z,29.10
2023-04-16T00:52:03.233Z,29.43
2023-04-16T00:54:30.004Z,29.77
2023-04-16T00:56:57.534Z,30.70
2023-04-16T00:59:23.633Z,30.63
2023-04-16T01:01:49.977Z,26.60
2023-04-16T01:04:16.558Z,29.70
2023-04-16T01:06:42.728Z,29.33
2023-04-16T01:09:11.230Z,28.60
2023-04-16T01:11:37.516Z,26.37
2023-04-16T01:14:03.713Z,29.50
2023-04-16T01:16:30.300Z,29.27
2023-04-16T01:18:56.369Z,31.07
2023-04-16T01:21:22.437Z,31.20
2023-04-16T01:23:48.521Z,30.13
2023-04-16T01:26:14.910Z,31.10
2023-04-16T01:28:41.423Z,31.47
2023-04-16T01:31:07.511Z,32.07
2023-04-16T01:33:33.619Z,31.00
2023-04-16T01:35:59.781Z,32.40
2023-04-16T01:38:25.871Z,31.17
2023-04-16T01:40:56.895Z,32.37
2023-04-16T01:43:22.992Z,32.77
2023-04-16T01:45:49.060Z,32.00
2023-04-16T01:48:15.204Z,30.67
2023-04-16T01:50:41.285Z,32.90
2023-04-16T01:53:08.914Z,34.00
2023-04-16T01:55:35.091Z,35.20
2023-04-16T01:58:01.164Z,34.87
2023-04-16T02:00:27.303Z,34.53
2023-04-16T02:02:53.787Z,32.97
2023-04-16T02:05:20.103Z,34.80
2023-04-16T02:07:46.279Z,33.17
2023-04-16T02:10:12.365Z,34.80
2023-04-16T02:12:38.513Z,34.30
2023-04-16T02:15:05.034Z,35.10
2023-04-16T02:17:31.120Z,36.10
2023-04-16T02:19:57.198Z,36.10
2023-04-16T02:22:23.457Z,33.70
2023-04-16T02:24:50.438Z,35.50
2023-04-16T02:27:16.499Z,36.80
2023-04-16T02:29:42.658Z,34.93
2023-04-16T02:32:08.935Z,35.13
2023-04-16T02:34:35.243Z,35.20
2023-04-16T02:37:01.382Z,34.23
2023-04-16T02:39:27.440Z,34.90
2023-04-16T02:41:53.705Z,32.93
2023-04-16T02:44:19.885Z,33.60
2023-04-16T02:46:46.002Z,31.67
2023-04-16T02:49:12.254Z,33.73
2023-04-16T02:51:38.417Z,33.43
2023-04-16T02:54:04.635Z,31.27
2023-04-16T02:56:30.716Z,32.73
2023-04-16T02:58:56.775Z,31.93
2023-04-16T03:01:22.900Z,32.70
2023-04-16T03:03:49.029Z,34.87
2023-04-16T03:06:15.563Z,31.70
2023-04-16T03:08:41.609Z,30.10
2023-04-16T03:11:07.663Z,30.57
2023-04-16T03:13:33.778Z,33.90
2023-04-16T03:15:59.867Z,32.50
2023-04-16T03:18:25.991Z,32.63
2023-04-16T03:20:52.773Z,30.10
2023-04-16T03:23:18.985Z,31.67
2023-04-16T03:25:47.255Z,32.23
2023-04-16T03:28:14.133Z,32.00
2023-04-16T03:30:40.257Z,31.30
2023-04-16T03:33:06.303Z,29.30
2023-04-16T03:35:32.680Z,31.60
2023-04-16T03:37:58.732Z,31.13
2023-04-16T03:40:25.367Z,31.33
2023-04-16T03:42:51.438Z,30.20
2023-04-16T03:45:17.729Z,29.63
2023-04-16T03:47:43.849Z,33.17
2023-04-16T03:50:10.975Z,33.57
2023-04-16T03:52:37.110Z,32.30
2023-04-16T03:55:03.467Z,33.60
2023-04-16T03:57:29.697Z,33.03
2023-04-16T03:59:55.779Z,33.47
2023-04-16T04:02:21.994Z,33.60
2023-04-16T04:04:48.289Z,33.93
2023-04-16T04:07:15.681Z,33.33
2023-04-16T04:09:41.714Z,34.70
2023-04-16T04:12:09.401Z,35.50
2023-04-16T04:14:39.108Z,33.57
2023-04-16T04:17:06.010Z,34.07
2023-04-16T04:19:32.312Z,33.80
2023-04-16T04:21:58.380Z,35.80
2023-04-16T04:24:25.218Z,33.27
2023-04-16T04:26:51.334Z,35.20
2023-04-16T04:29:17.431Z,36.90
2023-04-16T04:31:43.586Z,33.90
2023-04-16T04:34:09.772Z,34.83
2023-04-16T04:36:35.855Z,36.50
2023-04-16T04:39:01.945Z,33.90
2023-04-16T04:41:27.991Z,32.57
2023-04-16T04:43:54.090Z,33.47
2023-04-16T04:46:20.304Z,34.00
2023-04-16T04:48:46.484Z,36.00
2023-04-16T04:51:12.669Z,37.37
2023-04-16T04:53:38.758Z,36.30
2023-04-16T04:56:11.648Z,32.63
2023-04-16T04:58:38.392Z,35.03
2023-04-16T05:01:04.545Z,36.00
2023-04-16T05:03:30.668Z,36.20
2023-04-16T05:05:56.863Z,34.93
2023-04-16T05:08:22.903Z,35.17
2023-04-16T05:10:49.013Z,34.83
2023-04-16T05:13:15.122Z,36.23
2023-04-16T05:15:41.261Z,35.63
2023-04-16T05:18:07.307Z,33.33
2023-04-16T05:20:33.515Z,33.60
2023-04-16T05:22:59.682Z,30.50
2023-04-16T05:25:25.855Z,31.03
2023-04-16T05:27:51.903Z,28.20
2023-04-16T05:30:18.441Z,27.97
2023-04-16T05:32:44.578Z,26.50
2023-04-16T05:35:10.699Z,27.30
2023-04-16T05:37:36.757Z,26.93
2023-04-16T05:40:03.331Z,25.63
2023-04-16T05:42:29.389Z,25.43
2023-04-16T05:44:55.531Z,26.83
2023-04-16T05:47:21.763Z,26.03
2023-04-16T05:49:47.829Z,26.70
2023-04-16T05:52:14.310Z,28.70
2023-04-16T05:54:40.384Z,27.33
2023-04-16T05:57:06.439Z,30.07
2023-04-16T05:59:32.511Z,28.43
2023-04-16T06:01:58.586Z,28.70
2023-04-16T06:04:25.100Z,28.20
2023-04-16T06:06:51.203Z,29.20
2023-04-16T06:09:18.210Z,28.57
2023-04-16T06:11:44.332Z,29.10
2023-04-16T06:14:10.489Z,29.50
2023-04-16T06:16:36.697Z,28.40
2023-04-16T06:19:02.822Z,28.17
2023-04-16T06:21:28.914Z,28.20
2023-04-16T06:23:55.503Z,28.40
2023-04-16T06:26:21.808Z,28.60
2023-04-16T06:28:48.129Z,28.00
2023-04-16T06:31:14.344Z,29.17
2023-04-16T06:33:40.434Z,30.60
2023-04-16T06:36:06.611Z,28.60
2023-04-16T06:38:32.652Z,29.50
2023-04-16T06:40:58.956Z,28.33
2023-04-16T06:43:25.118Z,26.00
2023-04-16T06:45:51.443Z,26.67
2023-04-16T06:48:17.977Z,27.33
2023-04-16T06:50:44.099Z,28.97
2023-04-16T06:53:10.238Z,26.30
2023-04-16T06:55:36.281Z,29.17
2023-04-16T06:58:02.925Z,28.70
2023-04-16T07:00:29.157Z,28.57
2023-04-16T07:02:58.283Z,29.50
2023-04-16T07:05:25.476Z,29.20
2023-04-16T07:07:51.687Z,29.10
2023-04-16T07:10:17.812Z,28.80
2023-04-16T07:12:43.999Z,29.10
2023-04-16T07:15:10.481Z,26.20
2023-04-16T07:17:36.564Z,26.57
2023-04-16T07:20:02.912Z,28.50
2023-04-16T07:22:28.969Z,28.00
2023-04-16T07:24:55.798Z,29.63
2023-04-16T07:27:21.933Z,29.57
2023-04-16T07:29:49.640Z,29.67
2023-04-16T07:32:16.046Z,30.10
2023-04-16T07:34:42.273Z,30.83
2023-04-16T07:37:08.455Z,33.43
2023-04-16T07:39:34.653Z,31.00
2023-04-16T07:42:00.760Z,31.90
2023-04-16T07:44:27.050Z,28.17
2023-04-16T07:46:53.169Z,30.13
2023-04-16T07:49:19.304Z,31.23
2023-04-16T07:51:46.092Z,30.17
2023-04-16T07:54:12.253Z,28.83
2023-04-16T07:56:38.352Z,28.77
2023-04-16T07:59:18.384Z,28.90
2023-04-16T08:01:48.949Z,29.20
2023-04-16T08:04:16.802Z,28.60
2023-04-16T08:06:42.970Z,29.63
2023-04-16T08:09:09.307Z,29.87
2023-04-16T08:11:35.516Z,31.53
2023-04-16T08:14:01.661Z,31.97
2023-04-16T08:16:27.761Z,30.43
2023-04-16T08:18:53.939Z,31.60
2023-04-16T08:21:20.032Z,29.60
2023-04-16T08:23:46.156Z,33.47
2023-04-16T08:26:12.257Z,32.30
2023-04-16T08:28:38.385Z,31.60
2023-04-16T08:31:04.814Z,29.23
2023-04-16T08:33:30.921Z,29.50
2023-04-16T08:35:57.468Z,30.80
2023-04-16T08:38:23.590Z,27.70
2023-04-16T08:40:50.011Z,27.67
2023-04-16T08:43:17.491Z,29.37
2023-04-16T08:45:45.509Z,28.17
2023-04-16T08:48:11.727Z,28.50
2023-04-16T08:50:38.201Z,28.63
2023-04-16T08:53:10.740Z,30.20
2023-04-16T08:55:48.841Z,29.00
2023-04-16T08:58:21.776Z,28.63
2023-04-16T09:00:52.928Z,27.63
2023-04-16T09:03:24.067Z,31.87
2023-04-16T09:05:56.901Z,28.70
2023-04-16T09:08:28.821Z,29.70
2023-04-16T09:10:59.782Z,30.10
2023-04-16T09:13:31.478Z,28.03
2023-04-16T09:16:03.123Z,28.70
2023-04-16T09:18:40.532Z,28.57
2023-04-16T09:21:12.013Z,27.00
2023-04-16T09:23:42.905Z,29.40
2023-04-16T09:26:17.980Z,28.53
2023-04-16T09:28:50.159Z,30.37
2023-04-16T09:31:18.941Z,31.73
2023-04-16T09:34:01.763Z,28.60
2023-04-16T09:36:28.303Z,30.43
2023-04-16T09:38:56.951Z,30.03
2023-04-16T09:41:26.521Z,28.93
2023-04-16T09:43:59.783Z,29.30
2023-04-16T09:46:33.483Z,27.70
2023-04-16T09:49:10.350Z,26.60
2023-04-16T09:51:43.775Z,27.23
2023-04-16T09:54:10.046Z,27.70
2023-04-16T09:56:43.410Z,27.03
2023-04-16T09:59:22.028Z,26.90
2023-04-16T10:01:49.220Z,25.70
2023-04-16T10:04:15.921Z,24.97
2023-04-16T10:06:42.056Z,25.47
2023-04-16T10:09:14.095Z,25.23
2023-04-16T10:11:45.239Z,26.30
2023-04-16T10:14:14.383Z,23.17
2023-04-16T10:16:46.933Z,24.67
2023-04-16T10:19:17.688Z,24.40
2023-04-16T10:21:47.843Z,25.20
2023-04-16T10:24:17.827Z,24.90
2023-04-16T10:26:49.400Z,26.33
2023-04-16T10:29:21.754Z,25.60
2023-04-16T10:31:50.047Z,23.33
2023-04-16T10:34:20.658Z,23.77
2023-04-16T10:36:52.296Z,23.00
2023-04-16T10:39:27.006Z,22.23
2023-04-16T10:42:12.750Z,23.13
2023-04-16T10:44:45.312Z,23.30
2023-04-16T10:47:13.124Z,22.10
2023-04-16T10:49:40.462Z,23.53
2023-04-16T10:52:12.894Z,22.13
2023-04-16T10:54:40.488Z,22.53
2023-04-16T10:57:15.476Z,20.50
2023-04-16T10:59:49.946Z,21.73
2023-04-16T11:02:17.260Z,20.90
2023-04-16T11:04:45.089Z,20.17
2023-04-16T11:07:14.275Z,19.73
2023-04-16T11:10:01.520Z,20.10
2023-04-16T11:12:36.672Z,20.87
2023-04-16T11:15:10.521Z,20.37
2023-04-16T11:17:46.608Z,21.70
2023-04-16T11:20:22.493Z,20.93
2023-04-16T11:22:57.411Z,24.27
2023-04-16T11:25:29.705Z,22.87
2023-04-16T11:28:01.860Z,21.10
2023-04-16T11:30:38.247Z,23.20
2023-04-16T11:33:10.734Z,24.23
2023-04-16T11:35:40.832Z,23.00
2023-04-16T11:38:07.910Z,25.00
2023-04-16T11:40:38.704Z,24.07
2023-04-16T11:43:14.262Z,21.80
2023-04-16T11:45:56.714Z,23.50
2023-04-16T11:48:23.623Z,23.30
2023-04-16T11:50:55.870Z,24.87
2023-04-16T11:53:28.419Z,23.43
2023-04-16T11:56:15.168Z,24.97
2023-04-16T11:59:08.789Z,24.00
2023-04-16T12:01:44.763Z,22.67
2023-04-16T12:04:19.365Z,24.70
2023-04-16T12:07:12.996Z,22.67
2023-04-16T12:09:43.978Z,24.43
2023-04-16T12:12:32.146Z,22.43
2023-04-16T12:15:02.468Z,22.60
2023-04-16T12:17:30.345Z,23.63
2023-04-16T12:20:14.227Z,24.00
2023-04-16T12:22:48.727Z,24.03
2023-04-16T12:25:16.440Z,24.40
2023-04-16T12:27:54.466Z,23.17
2023-04-16T12:30:22.942Z,25.30
2023-04-16T12:32:50.947Z,24.20
2023-04-16T12:35:30.837Z,25.43
2023-04-16T12:38:02.864Z,23.87
2023-04-16T12:40:28.994Z,24.90
2023-04-16T12:42:55.167Z,23.30
2023-04-16T12:45:25.622Z,23.83
2023-04-16T12:47:53.251Z,24.40
2023-04-16T12:50:19.392Z,22.80
2023-04-16T12:52:45.726Z,24.83
2023-04-16T12:55:16.478Z,24.27
2023-04-16T12:57:42.518Z,24.90
2023-04-16T13:00:10.019Z,25.33
2023-04-16T13:02:36.297Z,23.97
2023-04-16T13:05:08.506Z,24.07
2023-04-16T13:07:38.911Z,24.40
2023-04-16T13:10:09.729Z,24.87
2023-04-16T13:12:40.391Z,23.93
2023-04-16T13:15:11.072Z,24.60
2023-04-16T13:17:41.324Z,22.07
2023-04-16T13:20:11.741Z,24.83
2023-04-16T13:22:43.946Z,24.20
2023-04-16T13:25:13.932Z,26.17
2023-04-16T13:27:44.152Z,24.00
2023-04-16T13:30:16.964Z,25.07
2023-04-16T13:32:47.815Z,24.20
2023-04-16T13:35:17.529Z,24.90
2023-04-16T13:37:48.539Z,24.70
2023-04-16T13:40:18.576Z,26.07
2023-04-16T13:42:48.681Z,26.03
2023-04-16T13:45:19.941Z,24.53
2023-04-16T13:47:49.184Z,25.30
2023-04-16T13:50:19.720Z,23.70
2023-04-16T13:52:50.050Z,23.40
2023-04-16T13:55:20.055Z,25.57
2023-04-16T13:57:55.622Z,25.90
2023-04-16T14:00:25.743Z,25.47
2023-04-16T14:02:55.467Z,25.73
2023-04-16T14:05:27.125Z,25.47
2023-04-16T14:07:55.591Z,26.23
2023-04-16T14:10:25.807Z,25.30
2023-04-16T14:12:57.010Z,27.03
2023-04-16T14:15:30.920Z,26.80
2023-04-16T14:18:01.451Z,27.20
2023-04-16T14:20:30.850Z,24.70
2023-04-16T14:23:04.150Z,24.80
2023-04-16T14:25:35.150Z,25.40
2023-04-16T14:28:05.026Z,23.03
2023-04-16T14:30:35.076Z,25.40
2023-04-16T14:33:06.882Z,25.13
2023-04-16T14:35:37.025Z,24.80
2023-04-16T14:38:07.832Z,24.20
2023-04-16T14:40:40.538Z,24.57
2023-04-16T14:43:11.211Z,23.67
2023-04-16T14:45:41.220Z,24.33
2023-04-16T14:48:11.639Z,23.80
2023-04-16T14:50:43.320Z,22.90
2023-04-16T14:53:12.637Z,22.80
2023-04-16T14:55:42.648Z,22.03
2023-04-16T14:58:13.658Z,21.70
2023-04-16T15:00:42.859Z,22.60
2023-04-16T15:03:14.126Z,30.37
2023-04-16T15:05:45.731Z,29.00
2023-04-16T15:08:18.379Z,25.27
2023-04-16T15:10:48.390Z,22.00
2023-04-16T15:13:18.740Z,23.20
2023-04-16T15:15:48.864Z,22.37
2023-04-16T15:18:20.590Z,22.40
2023-04-16T15:20:50.766Z,25.37
2023-04-16T15:23:20.899Z,19.20
2023-04-16T15:25:54.188Z,19.27
2023-04-16T15:28:24.521Z,19.73
2023-04-16T15:30:54.998Z,21.17
2023-04-16T15:33:26.718Z,20.30
2023-04-16T15:35:58.254Z,19.83
2023-04-16T15:38:29.958Z,20.40
2023-04-16T15:40:58.898Z,18.67
2023-04-16T15:43:30.726Z,20.50
2023-04-16T15:45:58.339Z,19.00
2023-04-16T15:48:28.448Z,18.50
2023-04-16T15:51:01.258Z,20.33
2023-04-16T15:53:31.763Z,21.73
2023-04-16T15:56:01.697Z,19.40
2023-04-16T15:58:31.994Z,18.87
2023-04-16T16:01:02.067Z,19.20
2023-04-16T16:03:33.351Z,22.57
2023-04-16T16:06:03.971Z,23.87
2023-04-16T16:08:35.136Z,20.30
2023-04-16T16:11:02.666Z,25.30
2023-04-16T16:13:32.780Z,28.00
2023-04-16T16:16:03.321Z,22.93
2023-04-16T16:18:38.009Z,19.67
2023-04-16T16:21:08.039Z,21.33
2023-04-16T16:23:40.006Z,18.40
2023-04-16T16:26:16.865Z,23.20
2023-04-16T16:28:47.311Z,18.57
2023-04-16T16:31:17.593Z,18.00
2023-04-16T16:33:48.119Z,18.03
2023-04-16T16:36:18.372Z,16.87
2023-04-16T16:38:48.582Z,18.73
2023-04-16T16:41:19.837Z,19.77
2023-04-16T16:43:55.466Z,27.37
2023-04-16T16:46:22.944Z,38.50
2023-04-16T16:48:53.965Z,35.27
2023-04-16T16:51:29.733Z,21.37
2023-04-16T16:53:58.340Z,21.03
2023-04-16T16:56:28.231Z,20.87
2023-04-16T16:59:00.131Z,19.33
2023-04-16T17:01:29.160Z,21.93
2023-04-16T17:03:59.021Z,19.10
2023-04-16T17:06:29.381Z,17.70
2023-04-16T17:09:03.302Z,15.87
2023-04-16T17:11:32.802Z,17.70
2023-04-16T17:14:03.387Z,19.50
2023-04-16T17:16:33.424Z,16.57
2023-04-16T17:19:03.649Z,15.73
2023-04-16T17:21:33.638Z,15.57
2023-04-16T17:24:04.219Z,14.90
2023-04-16T17:26:40.201Z,15.83
2023-04-16T17:29:08.775Z,14.93
2023-04-16T17:31:38.789Z,14.27
2023-04-16T17:34:09.748Z,15.10
2023-04-16T17:36:39.433Z,14.83
2023-04-16T17:39:09.578Z,14.70
2023-04-16T17:41:39.730Z,17.43
2023-04-16T17:44:13.333Z,15.33
2023-04-16T17:46:44.116Z,16.03
2023-04-16T17:49:14.992Z,16.57
2023-04-16T17:51:44.900Z,16.33
2023-04-16T17:54:14.910Z,15.80
2023-04-16T17:56:45.568Z,17.00
2023-04-16T17:59:16.024Z,15.00
2023-04-16T18:01:49.110Z,15.87
2023-04-16T18:04:19.638Z,16.60
2023-04-16T18:06:49.284Z,16.30
2023-04-16T18:09:19.525Z,16.80
2023-04-16T18:11:49.848Z,17.53
2023-04-16T18:14:21.013Z,17.77
2023-04-16T18:16:50.755Z,16.90
2023-04-16T18:19:25.858Z,17.17
2023-04-16T18:21:55.753Z,18.67
2023-04-16T18:24:26.267Z,18.77
2023-04-16T18:26:56.313Z,19.57
2023-04-16T18:29:26.469Z,18.40
2023-04-16T18:31:56.574Z,20.13
2023-04-16T18:34:28.852Z,20.20
2023-04-16T18:37:03.723Z,20.60
2023-04-16T18:39:33.974Z,22.13
2023-04-16T18:42:04.448Z,21.90
2023-04-16T18:44:33.937Z,21.90
2023-04-16T18:47:03.937Z,24.27
2023-04-16T18:49:34.167Z,22.70
2023-04-16T18:52:04.551Z,22.87
2023-04-16T18:54:42.935Z,25.60
2023-04-16T18:57:09.910Z,24.43
2023-04-16T18:59:40.409Z,24.10
2023-04-16T19:02:11.421Z,24.17
2023-04-16T19:04:41.924Z,23.73
2023-04-16T19:07:12.535Z,23.57
2023-04-16T19:09:43.066Z,26.07
2023-04-16T19:12:18.351Z,25.60
2023-04-16T19:14:48.364Z,24.10
2023-04-16T19:17:18.222Z,25.80
2023-04-16T19:19:48.370Z,26.37
2023-04-16T19:22:18.755Z,27.10
2023-04-16T19:24:48.771Z,25.20
2023-04-16T19:27:19.653Z,26.43
2023-04-16T19:29:53.988Z,25.00
2023-04-16T19:32:23.760Z,23.70
2023-04-16T19:34:53.939Z,25.57
2023-04-16T19:37:24.784Z,24.47
2023-04-16T19:39:54.666Z,26.30
2023-04-16T19:42:25.667Z,24.80
2023-04-16T19:44:55.192Z,26.10
2023-04-16T19:47:30.087Z,24.87
2023-04-16T19:50:00.219Z,24.97
2023-04-16T19:52:29.894Z,26.07
2023-04-16T19:55:00.166Z,24.77
2023-04-16T19:57:30.967Z,26.63
2023-04-16T20:00:01.772Z,25.33
2023-04-16T20:02:31.771Z,27.67
2023-04-16T20:05:08.472Z,26.03
2023-04-16T20:07:37.715Z,26.67
2023-04-16T20:10:08.246Z,26.00
2023-04-16T20:12:39.011Z,25.80
2023-04-16T20:15:11.406Z,27.53
2023-04-16T20:17:43.234Z,26.60
2023-04-16T20:20:14.987Z,25.03
2023-04-16T20:22:46.585Z,27.30
2023-04-16T20:25:20.882Z,24.67
2023-04-16T20:27:47.455Z,27.20
2023-04-16T20:30:21.800Z,25.77
2023-04-16T20:32:50.552Z,27.07
2023-04-16T20:35:21.815Z,27.20
2023-04-16T20:37:51.722Z,24.30
2023-04-16T20:40:29.751Z,24.40
2023-04-16T20:42:59.167Z,26.50
2023-04-16T20:45:37.239Z,24.30
2023-04-16T20:48:07.179Z,23.40
2023-04-16T20:50:33.378Z,25.47
2023-04-16T20:53:01.306Z,25.67
2023-04-16T20:55:32.144Z,24.07
2023-04-16T20:58:03.688Z,25.50
2023-04-16T21:00:35.441Z,26.83
2023-04-16T21:03:06.164Z,25.77
2023-04-16T21:05:41.411Z,23.37
2023-04-16T21:08:13.137Z,25.20
2023-04-16T21:10:43.997Z,25.37
2023-04-16T21:13:17.896Z,26.93
2023-04-16T21:15:47.677Z,25.57
2023-04-16T21:18:17.896Z,24.33
2023-04-16T21:20:47.668Z,24.17
2023-04-16T21:23:19.225Z,23.90
2023-04-16T21:25:49.447Z,23.03
2023-04-16T21:28:19.438Z,26.70
2023-04-16T21:30:52.765Z,26.30
2023-04-16T21:33:23.964Z,26.40
2023-04-16T21:35:54.141Z,25.30
2023-04-16T21:38:23.911Z,27.70
2023-04-16T21:40:56.066Z,24.00
2023-04-16T21:43:31.214Z,25.67
2023-04-16T21:45:58.056Z,27.13
2023-04-16T21:48:27.666Z,25.83
2023-04-16T21:50:58.412Z,25.70
2023-04-16T21:53:31.262Z,25.80
2023-04-16T21:56:00.598Z,24.20
2023-04-16T21:58:32.568Z,23.60
2023-04-16T22:01:02.917Z,25.17
2023-04-16T22:03:33.649Z,23.80
2023-04-16T22:06:04.582Z,21.90
2023-04-16T22:08:34.254Z,26.47
2023-04-16T22:11:05.261Z,25.17
2023-04-16T22:13:35.858Z,25.10
2023-04-16T22:16:11.865Z,24.00
2023-04-16T22:18:42.585Z,22.80
2023-04-16T22:21:12.844Z,24.87
2023-04-16T22:23:44.713Z,23.03
2023-04-16T22:26:13.201Z,23.57
2023-04-16T22:28:42.897Z,24.87
2023-04-16T22:31:14.573Z,25.07
2023-04-16T22:33:50.459Z,23.67
2023-04-16T22:36:20.463Z,24.13
2023-04-16T22:38:50.645Z,24.23
2023-04-16T22:41:22.153Z,24.30
2023-04-16T22:43:52.482Z,24.97
2023-04-16T22:46:21.619Z,23.70
2023-04-16T22:48:53.116Z,25.70
2023-04-16T22:51:27.593Z,23.20
2023-04-16T22:53:58.476Z,23.90
2023-04-16T22:56:30.320Z,24.83
2023-04-16T22:58:58.606Z,23.50
2023-04-16T23:01:29.047Z,22.73
2023-04-16T23:03:59.481Z,24.53
2023-04-16T23:06:30.750Z,23.40
2023-04-16T23:09:06.391Z,23.20
2023-04-16T23:11:36.702Z,22.60
2023-04-16T23:14:07.544Z,22.67
2023-04-16T23:16:36.790Z,23.10
2023-04-16T23:19:13.913Z,23.67
2023-04-16T23:21:40.770Z,24.20
2023-04-16T23:24:18.003Z,23.77
2023-04-16T23:26:48.585Z,23.60
2023-04-16T23:29:19.911Z,23.90
2023-04-16T23:31:48.901Z,23.40
2023-04-16T23:34:24.688Z,23.23
2023-04-16T23:36:54.649Z,24.00
2023-04-16T23:39:24.826Z,23.80
2023-04-16T23:41:56.851Z,23.67
2023-04-16T23:44:25.850Z,23.80
2023-04-16T23:46:56.531Z,23.97
2023-04-16T23:49:25.774Z,23.90
2023-04-16T23:52:02.785Z,25.30
2023-04-16T23:54:32.918Z,26.00
2023-04-16T23:57:03.174Z,24.60
2023-04-16T23:59:33.558Z,25.23
